createdAt,value
2022-08-18T00:10:28.565Z,969.03
2022-08-18T00:11:28.588Z,968.99
2022-08-18T00:12:28.639Z,969.01
2022-08-18T00:13:28.687Z,968.99
2022-08-18T00:14:28.734Z,969.01
2022-08-18T00:15:28.817Z,969.07
2022-08-18T00:16:28.834Z,969.10
2022-08-18T00:17:28.886Z,969.09
2022-08-18T00:18:28.932Z,969.07
2022-08-18T00:19:46.923Z,969.02
2022-08-18T00:20:29.053Z,969.01
2022-08-18T00:21:29.081Z,968.99
2022-08-18T00:22:29.137Z,969.00
2022-08-18T00:23:29.184Z,969.04
2022-08-18T00:24:29.233Z,969.04
2022-08-18T00:25:29.303Z,969.02
2022-08-18T00:26:32.353Z,969.03
2022-08-18T00:27:29.411Z,969.04
2022-08-18T00:28:29.433Z,968.98
2022-08-18T00:29:29.484Z,969.03
2022-08-18T00:30:29.563Z,968.99
2022-08-18T00:31:29.598Z,968.94
2022-08-18T00:32:29.645Z,968.90
2022-08-18T00:33:29.687Z,968.88
2022-08-18T00:34:29.736Z,968.85
2022-08-18T00:35:29.811Z,968.89
2022-08-18T00:36:29.839Z,968.93
2022-08-18T00:37:29.888Z,968.86
2022-08-18T00:38:29.937Z,968.84
2022-08-18T00:39:30.040Z,968.79
2022-08-18T00:40:31.493Z,968.74
2022-08-18T00:41:30.091Z,968.76
2022-08-18T00:42:31.052Z,968.75
2022-08-18T00:43:30.217Z,968.75
2022-08-18T00:44:30.244Z,968.74
2022-08-18T00:45:30.293Z,968.72
2022-08-18T00:46:30.345Z,968.74
2022-08-18T00:47:41.004Z,968.70
2022-08-18T00:48:30.466Z,968.65
2022-08-18T00:49:30.495Z,968.59
2022-08-18T00:50:30.543Z,968.59
2022-08-18T00:51:30.620Z,968.55
2022-08-18T00:52:30.646Z,968.52
2022-08-18T00:53:30.724Z,968.51
2022-08-18T00:54:30.751Z,968.45
2022-08-18T00:55:30.799Z,968.49
2022-08-18T00:56:30.848Z,968.46
2022-08-18T00:57:30.901Z,968.45
2022-08-18T00:58:30.974Z,968.43
2022-08-18T00:59:31.000Z,968.44
2022-08-18T01:00:31.138Z,968.44
2022-08-18T01:01:31.162Z,968.46
2022-08-18T01:02:31.177Z,968.44
2022-08-18T01:03:31.229Z,968.40
2022-08-18T01:04:31.266Z,968.40
2022-08-18T01:05:31.305Z,968.40
2022-08-18T01:06:31.358Z,968.39
2022-08-18T01:07:31.407Z,968.35
2022-08-18T01:08:31.478Z,968.33
2022-08-18T01:09:31.506Z,968.29
2022-08-18T01:10:31.557Z,968.24
2022-08-18T01:11:31.631Z,968.22
2022-08-18T01:12:44.845Z,968.19
2022-08-18T01:13:31.707Z,968.20
2022-08-18T01:14:31.754Z,968.19
2022-08-18T01:15:31.804Z,968.18
2022-08-18T01:16:31.898Z,968.14
2022-08-18T01:17:31.931Z,968.14
2022-08-18T01:18:31.958Z,968.13
2022-08-18T01:19:32.010Z,968.18
2022-08-18T01:20:32.098Z,968.17
2022-08-18T01:21:32.126Z,968.17
2022-08-18T01:22:32.172Z,968.16
2022-08-18T01:23:32.224Z,968.13
2022-08-18T01:24:32.262Z,968.11
2022-08-18T01:25:32.338Z,968.09
2022-08-18T01:26:32.369Z,968.06
2022-08-18T01:27:32.409Z,968.03
2022-08-18T01:28:32.499Z,968.02
2022-08-18T01:29:32.512Z,968.00
2022-08-18T01:30:32.564Z,967.98
2022-08-18T01:31:32.638Z,967.98
2022-08-18T01:32:32.710Z,967.96
2022-08-18T01:33:32.746Z,968.03
2022-08-18T01:34:32.768Z,968.08
2022-08-18T01:35:41.627Z,968.04
2022-08-18T01:36:32.867Z,968.07
2022-08-18T01:37:32.938Z,968.04
2022-08-18T01:38:32.966Z,968.01
2022-08-18T01:41:22.594Z,968.03
2022-08-18T01:41:22.761Z,968.05
2022-08-18T01:41:33.245Z,968.06
2022-08-18T01:42:33.202Z,968.09
2022-08-18T01:43:33.216Z,968.09
2022-08-18T01:44:33.268Z,968.11
2022-08-18T01:45:33.336Z,968.08
2022-08-18T01:46:33.364Z,968.01
2022-08-18T01:47:47.857Z,968.00
2022-08-18T01:48:33.467Z,967.92
2022-08-18T01:49:33.515Z,967.88
2022-08-18T01:50:33.625Z,967.85
2022-08-18T01:51:39.440Z,967.84
2022-08-18T01:52:33.668Z,967.81
2022-08-18T01:53:33.716Z,967.77
2022-08-18T01:54:33.768Z,967.81
2022-08-18T01:55:33.843Z,967.79
2022-08-18T01:56:33.870Z,967.80
2022-08-18T01:57:33.922Z,967.82
2022-08-18T01:58:33.970Z,967.81
2022-08-18T01:59:34.016Z,967.81
2022-08-18T02:00:34.103Z,967.78
2022-08-18T02:01:36.944Z,967.82
2022-08-18T02:02:34.196Z,967.72
2022-08-18T02:03:34.253Z,967.69
2022-08-18T02:04:35.996Z,967.74
2022-08-18T02:05:34.323Z,967.75
2022-08-18T02:06:34.373Z,967.76
2022-08-18T02:07:36.446Z,967.82
2022-08-18T02:08:34.496Z,967.79
2022-08-18T02:09:34.579Z,967.76
2022-08-18T02:10:34.574Z,967.74
2022-08-18T02:11:34.621Z,967.71
2022-08-18T02:12:34.699Z,967.69
2022-08-18T02:13:34.721Z,967.70
2022-08-18T02:14:34.772Z,967.72
2022-08-18T02:15:34.855Z,967.71
2022-08-18T02:16:34.875Z,967.70
2022-08-18T02:17:34.923Z,967.71
2022-08-18T02:18:47.922Z,967.67
2022-08-18T02:19:35.024Z,967.67
2022-08-18T02:20:35.107Z,967.68
2022-08-18T02:21:35.132Z,967.69
2022-08-18T02:22:35.175Z,967.64
2022-08-18T02:23:35.228Z,967.63
2022-08-18T02:24:35.276Z,967.63
2022-08-18T02:25:35.351Z,967.64
2022-08-18T02:26:35.376Z,967.62
2022-08-18T02:27:35.440Z,967.60
2022-08-18T02:28:35.476Z,967.58
2022-08-18T02:29:35.529Z,967.58
2022-08-18T02:30:35.602Z,967.60
2022-08-18T02:31:35.628Z,967.59
2022-08-18T02:32:35.698Z,967.59
2022-08-18T02:33:35.726Z,967.58
2022-08-18T02:34:35.780Z,967.56
2022-08-18T02:35:35.828Z,967.51
2022-08-18T02:36:35.879Z,967.51
2022-08-18T02:37:35.957Z,967.46
2022-08-18T02:38:35.978Z,967.42
2022-08-18T02:39:36.074Z,967.39
2022-08-18T02:40:36.081Z,967.37
2022-08-18T02:41:36.128Z,967.35
2022-08-18T02:42:36.202Z,967.34
2022-08-18T02:43:37.896Z,967.30
2022-08-18T02:44:36.280Z,967.33
2022-08-18T02:45:36.332Z,967.27
2022-08-18T02:46:36.385Z,967.24
2022-08-18T02:47:36.453Z,967.27
2022-08-18T02:48:36.484Z,967.24
2022-08-18T02:49:36.570Z,967.25
2022-08-18T02:50:36.583Z,967.23
2022-08-18T02:51:36.635Z,967.25
2022-08-18T02:52:36.692Z,967.25
2022-08-18T02:53:36.731Z,967.22
2022-08-18T02:54:36.808Z,967.23
2022-08-18T02:55:36.835Z,967.25
2022-08-18T02:56:41.251Z,967.22
2022-08-18T02:57:36.933Z,967.25
2022-08-18T02:58:36.991Z,967.23
2022-08-18T02:59:37.076Z,967.20
2022-08-18T03:00:37.084Z,967.24
2022-08-18T03:01:37.207Z,967.22
2022-08-18T03:02:37.189Z,967.21
2022-08-18T03:03:37.239Z,967.21
2022-08-18T03:04:37.318Z,967.18
2022-08-18T03:05:37.338Z,967.22
2022-08-18T03:06:37.389Z,967.20
2022-08-18T03:07:37.440Z,967.18
2022-08-18T03:08:37.489Z,967.15
2022-08-18T03:09:37.568Z,967.15
2022-08-18T03:10:37.587Z,967.14
2022-08-18T03:11:37.646Z,967.11
2022-08-18T03:12:37.689Z,967.11
2022-08-18T03:13:37.742Z,967.05
2022-08-18T03:14:37.814Z,967.04
2022-08-18T03:15:37.841Z,967.01
2022-08-18T03:16:37.893Z,967.01
2022-08-18T03:17:37.943Z,966.98
2022-08-18T03:18:38.016Z,966.90
2022-08-18T03:19:38.044Z,966.91
2022-08-18T03:20:38.093Z,966.87
2022-08-18T03:21:38.143Z,966.84
2022-08-18T03:22:38.191Z,966.74
2022-08-18T03:23:38.266Z,966.72
2022-08-18T03:24:38.327Z,966.75
2022-08-18T03:25:38.344Z,966.77
2022-08-18T03:26:38.395Z,966.81
2022-08-18T03:27:38.446Z,966.82
2022-08-18T03:28:38.493Z,966.84
2022-08-18T03:29:38.572Z,966.87
2022-08-18T03:30:38.598Z,966.81
2022-08-18T03:31:38.646Z,966.83
2022-08-18T03:32:38.701Z,966.81
2022-08-18T03:33:38.746Z,966.79
2022-08-18T03:34:38.871Z,966.86
2022-08-18T03:35:38.845Z,966.88
2022-08-18T03:36:38.898Z,966.97
2022-08-18T03:37:38.947Z,966.92
2022-08-18T03:38:39.000Z,966.86
2022-08-18T03:39:39.130Z,966.85
2022-08-18T03:40:39.106Z,966.81
2022-08-18T03:41:44.441Z,966.80
2022-08-18T03:42:39.201Z,966.78
2022-08-18T03:43:50.951Z,966.80
2022-08-18T03:44:39.329Z,966.81
2022-08-18T03:45:39.350Z,966.81
2022-08-18T03:46:39.402Z,966.81
2022-08-18T03:47:39.451Z,966.81
2022-08-18T03:48:39.508Z,966.85
2022-08-18T03:49:39.577Z,966.87
2022-08-18T03:50:39.602Z,966.87
2022-08-18T03:51:39.652Z,966.86
2022-08-18T03:52:41.553Z,966.88
2022-08-18T03:53:39.754Z,966.92
2022-08-18T03:54:39.832Z,966.96
2022-08-18T03:55:39.853Z,967.03
2022-08-18T03:56:39.902Z,967.09
2022-08-18T03:57:39.961Z,967.11
2022-08-18T03:58:40.006Z,967.09
2022-08-18T03:59:40.084Z,967.08
2022-08-18T04:00:40.107Z,966.98
2022-08-18T04:01:40.225Z,966.90
2022-08-18T04:02:40.208Z,966.89
2022-08-18T04:03:40.258Z,966.88
2022-08-18T04:04:42.812Z,966.94
2022-08-18T04:05:40.357Z,967.01
2022-08-18T04:06:40.440Z,967.03
2022-08-18T04:07:40.459Z,967.08
2022-08-18T04:08:40.510Z,967.10
2022-08-18T04:09:40.560Z,967.08
2022-08-18T04:10:40.609Z,967.06
2022-08-18T04:11:40.695Z,967.08
2022-08-18T04:12:40.732Z,967.10
2022-08-18T04:13:40.760Z,967.16
2022-08-18T04:14:40.810Z,967.18
2022-08-18T04:15:40.859Z,967.21
2022-08-18T04:16:40.914Z,967.19
2022-08-18T04:18:03.111Z,967.21
2022-08-18T04:18:41.022Z,967.26
2022-08-18T04:19:41.063Z,967.24
2022-08-18T04:20:59.471Z,967.28
2022-08-18T04:21:41.163Z,967.22
2022-08-18T04:22:41.214Z,967.23
2022-08-18T04:23:43.637Z,967.23
2022-08-18T04:24:41.316Z,967.22
2022-08-18T04:25:41.397Z,967.21
2022-08-18T04:26:41.415Z,967.21
2022-08-18T04:27:41.468Z,967.19
2022-08-18T04:28:41.518Z,967.16
2022-08-18T04:29:41.566Z,967.14
2022-08-18T04:30:41.657Z,967.15
2022-08-18T04:31:41.667Z,967.15
2022-08-18T04:32:41.727Z,967.16
2022-08-18T04:33:42.105Z,967.18
2022-08-18T04:34:41.816Z,967.19
2022-08-18T04:35:41.896Z,967.19
2022-08-18T04:36:41.945Z,967.19
2022-08-18T04:37:42.027Z,967.20
2022-08-18T04:38:42.026Z,967.18
2022-08-18T04:39:42.184Z,967.21
2022-08-18T04:40:42.126Z,967.21
2022-08-18T04:41:42.186Z,967.24
2022-08-18T04:42:43.118Z,967.25
2022-08-18T04:43:42.276Z,967.33
2022-08-18T04:44:42.352Z,967.33
2022-08-18T04:45:42.374Z,967.38
2022-08-18T04:46:42.432Z,967.43
2022-08-18T04:47:42.478Z,967.46
2022-08-18T04:48:42.534Z,967.46
2022-08-18T04:49:42.603Z,967.49
2022-08-18T04:50:42.627Z,967.55
2022-08-18T04:52:34.184Z,967.60
2022-08-18T11:01:44.230Z,966.19
2022-08-18T11:03:57.500Z,966.14
2022-08-18T11:04:58.744Z,966.21
2022-08-18T11:05:57.290Z,966.17
2022-08-18T11:06:57.345Z,966.16
2022-08-18T11:07:58.630Z,966.16
2022-08-18T11:30:51.064Z,966.15
2022-08-18T11:31:53.225Z,966.15
2022-08-18T11:44:50.924Z,966.18
2022-08-18T11:45:43.027Z,966.15
2022-08-18T11:46:43.080Z,966.10
2022-08-18T11:47:43.131Z,966.14
2022-08-18T11:48:52.732Z,966.08
2022-08-18T11:49:43.237Z,966.05
2022-08-18T11:50:43.311Z,966.06
2022-08-18T11:51:43.339Z,966.06
2022-08-18T11:52:43.394Z,966.02
2022-08-18T11:53:44.163Z,965.95
2022-08-18T17:46:07.899Z,966.64
2022-08-18T17:47:07.919Z,966.60
2022-08-18T17:48:07.972Z,966.61
2022-08-18T17:49:08.050Z,966.62
2022-08-18T17:50:27.728Z,966.63
2022-08-18T17:51:08.115Z,966.59
2022-08-18T17:52:08.162Z,966.63
2022-08-18T17:53:08.215Z,966.67
2022-08-18T17:54:08.319Z,966.65
2022-08-18T17:55:08.318Z,966.72
2022-08-18T17:56:08.362Z,966.72
2022-08-18T17:57:08.419Z,966.68
2022-08-18T17:58:08.562Z,966.71
2022-08-18T17:59:08.513Z,966.70
2022-08-18T18:00:08.563Z,966.69
2022-08-18T18:01:08.653Z,966.67
2022-08-18T18:02:08.669Z,966.69
2022-08-18T18:03:12.714Z,966.68
2022-08-18T18:04:08.812Z,966.74
2022-08-18T18:05:08.824Z,966.75
2022-08-18T18:06:08.884Z,966.72
2022-08-18T18:07:09.814Z,966.81
